Pagina principale
METAR-TAF:

METAR-TAF

Aeroporti :

RAF Fairford

Fairford, Inghilterra

latitudine: 51-41N, longitudine: 001-47W, altezza: 87 m

Osservazione

Il bollettino è stato emesso 1 ora e 4 minuti fa, alle 04:56 UTC
Vento 6 kt da nord
Temperature 5°C
Umidità 87%
Pressione 1016 hPa
Visibilità 10 km o più
Cielo coperto ad un'altezza di 3400 ft

METAR: EGVA 180456Z AUTO 35006KT 9999 OVC034 05/03 A3000 RMK AO2 SLP165 T00450033 $

Ora: 06:00 (06:00 UTC)


TAF: mancante

Osservazioni e previsioni meteorologiche di più di 4000 aeroporti (messaggi METAR e TAF).

Le stazioni disponibili sono rappresentate dai dischi gialli e rossi sulla carta.

Puntare il mouse per vedere il nome della stazione.

Clicca sopra per visualizzare le osservazioni e previsioni meteorologiche.

Per cambiare la mappa : fare clic sui pulsanti verdi con una croce nera per ingrandire, il pulsante verde con un trattino per diminuire, o sulla freccia verde per le mappe adiacenti.


METAR-TAF: